Time;durP1;ratioP1;P1;durP2;ratioP2;P2;SDS_P1;SDS_P2;PMS_P1;PMS_P2;Temp;Humidity;BMP_temperature;BMP_pressure;BME280_temperature;BME280_humidity;BME280_pressure;Samples;Min_cycle;Max_cycle;Signal;HPM_P1;HPM_P2
2022/08/13 00:01:26;;;;;;;3.60;3.47;;;;;;;14.22;100.00;97154.56;4913949;28;20427;-61
2022/08/13 00:04:01;;;;;;;4.30;4.00;;;;;;;14.17;100.00;97159.69;4963640;28;20264;-62
2022/08/13 00:09:23;;;;;;;4.47;4.13;;;;;;;14.12;100.00;97159.50;4965797;28;20214;-60
2022/08/13 00:14:59;;;;;;;4.17;3.87;;;;;;;14.04;100.00;97149.88;4960202;28;20441;-63
2022/08/13 00:17:31;;;;;;;4.70;4.23;;;;;;;14.04;100.00;97153.38;4918627;28;20467;-63
2022/08/13 00:20:21;;;;;;;4.30;4.10;;;;;;;14.02;100.00;97146.59;4966498;28;20202;-63
2022/08/13 00:22:54;;;;;;;4.00;3.70;;;;;;;13.92;100.00;97146.22;4939685;28;20206;-59
2022/08/13 00:25:30;;;;;;;3.80;3.53;;;;;;;13.84;100.00;97148.06;4968148;28;20757;-64
2022/08/13 00:28:15;;;;;;;4.17;3.90;;;;;;;13.84;100.00;97150.72;4964884;28;20364;-62
2022/08/13 00:30:48;;;;;;;4.40;4.10;;;;;;;13.80;100.00;97144.16;4952606;28;20229;-60
2022/08/13 00:33:24;;;;;;;4.20;4.00;;;;;;;13.75;100.00;97143.94;4964971;28;20226;-62
2022/08/13 00:36:12;;;;;;;4.87;4.53;;;;;;;13.78;100.00;97138.22;4965922;28;20225;-62
2022/08/13 00:38:52;;;;;;;4.33;4.13;;;;;;;13.81;100.00;97139.66;4936303;28;20714;-59
2022/08/13 00:41:38;;;;;;;4.77;4.47;;;;;;;13.71;100.00;97138.25;4971868;28;20442;-61
2022/08/13 00:44:28;;;;;;;4.10;3.90;;;;;;;13.70;100.00;97119.78;4970233;28;20209;-62
2022/08/13 00:49:41;;;;;;;4.43;4.13;;;;;;;13.65;100.00;97122.25;4970956;28;20755;-61
2022/08/13 00:52:30;;;;;;;4.20;4.00;;;;;;;13.72;100.00;97129.22;4957078;28;20226;-61
2022/08/13 00:55:00;;;;;;;4.53;4.23;;;;;;;13.60;100.00;97121.03;4952292;28;20205;-62
2022/08/13 00:57:30;;;;;;;4.10;3.90;;;;;;;13.65;100.00;97115.09;4968847;28;20303;-62
2022/08/13 01:00:00;;;;;;;4.27;3.93;;;;;;;13.64;100.00;97115.28;4969226;28;20456;-60
2022/08/13 01:02:28;;;;;;;4.27;4.03;;;;;;;13.59;100.00;97121.22;4920988;28;20221;-61
2022/08/13 01:05:00;;;;;;;4.33;4.03;;;;;;;13.56;100.00;97118.97;4964787;28;20359;-62
2022/08/13 01:07:30;;;;;;;3.93;3.73;;;;;;;13.54;100.00;97110.38;4950716;28;20237;-61
2022/08/13 01:10:20;;;;;;;3.80;3.60;;;;;;;13.56;100.00;97117.13;4954939;28;20210;-61
2022/08/13 01:12:52;;;;;;;4.50;4.00;;;;;;;13.55;100.00;97110.19;4970078;28;20230;-57
2022/08/13 01:15:23;;;;;;;4.40;4.10;;;;;;;13.50;100.00;97109.97;4970795;28;20587;-61
2022/08/13 01:18:13;;;;;;;5.67;4.27;;;;;;;13.48;100.00;97116.50;4918087;28;20306;-62
2022/08/13 01:20:46;;;;;;;4.20;4.00;;;;;;;13.42;100.00;97113.66;4967748;28;20875;-62
2022/08/13 01:23:17;;;;;;;5.63;5.13;;;;;;;13.32;100.00;97100.72;4952911;28;20201;-62
2022/08/13 01:26:01;;;;;;;4.20;3.90;;;;;;;13.40;100.00;97112.16;4943802;28;20284;-62
2022/08/13 01:28:38;;;;;;;4.67;4.37;;;;;;;13.29;100.00;97113.63;4969112;28;20213;-62
2022/08/13 01:31:10;;;;;;;4.00;3.70;;;;;;;13.36;100.00;97110.94;4968325;28;20241;-61
2022/08/13 01:33:47;;;;;;;5.07;4.77;;;;;;;13.34;100.00;97113.00;4917589;28;20629;-60
2022/08/13 01:36:21;;;;;;;4.50;4.20;;;;;;;13.34;100.00;97108.50;4967497;28;20221;-61
2022/08/13 01:39:11;;;;;;;4.43;4.23;;;;;;;13.26;100.00;97112.16;4952366;28;20320;-62
2022/08/13 01:41:47;;;;;;;5.27;4.63;;;;;;;13.31;100.00;97114.22;4948967;28;20205;-60
2022/08/13 01:44:22;;;;;;;4.43;4.23;;;;;;;13.30;100.00;97104.63;4970270;28;20291;-58
2022/08/13 01:52:41;;;;;;;5.10;4.90;;;;;;;13.17;100.00;97097.44;4914756;28;20975;-62
2022/08/13 01:55:12;;;;;;;5.00;4.70;;;;;;;13.21;100.00;97100.50;4964513;28;20206;-60
2022/08/13 01:57:43;;;;;;;4.40;4.20;;;;;;;13.17;100.00;97090.25;4967229;28;20225;-62
2022/08/13 02:00:21;;;;;;;4.33;3.93;;;;;;;13.11;100.00;97087.59;4968874;28;20373;-61
2022/08/13 02:02:55;;;;;;;4.43;4.23;;;;;;;13.13;100.00;97096.19;4963486;28;20745;-62
2022/08/13 02:05:24;;;;;;;3.83;3.63;;;;;;;13.01;100.00;97095.97;4961806;28;20217;-62
2022/08/13 02:08:14;;;;;;;4.50;4.13;;;;;;;13.00;100.00;97094.34;4908614;28;20226;-61
2022/08/13 02:10:48;;;;;;;3.90;3.60;;;;;;;12.93;100.00;97098.81;4965923;28;20692;-61
2022/08/13 02:13:19;;;;;;;4.30;4.00;;;;;;;12.82;100.00;97092.25;4966190;28;20225;-61
2022/08/13 02:15:52;;;;;;;4.50;4.20;;;;;;;12.86;100.00;97088.16;4970759;28;20201;-64
2022/08/13 02:18:22;;;;;;;4.23;4.00;;;;;;;12.88;100.00;97091.44;4965704;28;20537;-64
2022/08/13 02:20:53;;;;;;;4.50;4.20;;;;;;;12.95;100.00;97091.47;4966358;28;20676;-64
2022/08/13 02:23:25;;;;;;;4.20;4.00;;;;;;;12.84;100.00;97082.22;4915876;28;20221;-63
2022/08/13 02:26:18;;;;;;;4.50;4.10;;;;;;;12.74;100.00;97086.09;4943958;28;20746;-62
2022/08/13 02:28:47;;;;;;;3.63;3.50;;;;;;;12.83;100.00;97093.88;4971487;28;20682;-63
2022/08/13 02:31:17;;;;;;;4.10;3.90;;;;;;;12.87;100.00;97077.31;4966433;28;20234;-58
2022/08/13 02:34:06;;;;;;;4.43;4.23;;;;;;;12.87;100.00;97073.84;4965521;28;20229;-58
2022/08/13 02:36:44;;;;;;;3.97;3.77;;;;;;;12.92;100.00;97082.03;4969954;28;20237;-62
2022/08/13 02:39:14;;;;;;;4.30;4.00;;;;;;;12.88;100.00;97078.97;4902759;28;20214;-60
2022/08/13 02:41:43;;;;;;;4.67;4.37;;;;;;;12.83;100.00;97085.91;4963920;28;20607;-63
2022/08/13 02:44:20;;;;;;;6.87;5.53;;;;;;;12.89;100.00;97082.44;4961573;28;20903;-64
2022/08/13 02:47:03;;;;;;;3.80;3.60;;;;;;;12.84;100.00;97072.41;4968773;28;20222;-61
2022/08/13 02:49:31;;;;;;;3.93;3.73;;;;;;;12.85;100.00;97081.22;4966189;28;20825;-62
2022/08/13 02:52:13;;;;;;;3.77;3.57;;;;;;;12.87;100.00;97079.16;4964568;28;20921;-58
2022/08/13 02:54:44;;;;;;;3.90;3.60;;;;;;;12.81;100.00;97072.81;4922211;28;20786;-63
2022/08/13 02:57:25;;;;;;;3.70;3.50;;;;;;;12.85;100.00;97068.72;4927786;28;20565;-61
2022/08/13 02:59:54;;;;;;;3.57;3.47;;;;;;;12.77;100.00;97066.25;4967888;28;20268;-63
2022/08/13 03:02:38;;;;;;;4.70;4.30;;;;;;;12.76;100.00;97061.16;4967586;28;20281;-62
2022/08/13 03:05:09;;;;;;;4.17;3.97;;;;;;;12.72;100.00;97058.06;4965625;28;20206;-59
2022/08/13 03:07:41;;;;;;;4.73;4.43;;;;;;;12.69;100.00;97056.63;4967616;28;20630;-63
2022/08/13 03:10:21;;;;;;;4.30;4.00;;;;;;;12.62;100.00;97049.66;4908511;28;20734;-59
2022/08/13 03:13:16;;;;;;;4.63;4.27;;;;;;;12.66;100.00;97056.22;4963271;28;20280;-60
2022/08/13 03:15:52;;;;;;;4.40;4.20;;;;;;;12.55;100.00;97055.78;4964334;28;20214;-63
2022/08/13 03:18:29;;;;;;;3.93;3.73;;;;;;;12.61;100.00;97063.97;4961056;28;20205;-61
2022/08/13 03:21:18;;;;;;;4.43;4.23;;;;;;;12.52;100.00;97064.16;4965037;28;20631;-60
2022/08/13 03:24:08;;;;;;;4.10;3.90;;;;;;;12.52;100.00;97060.66;4966052;28;20259;-57
2022/08/13 03:26:38;;;;;;;4.10;3.90;;;;;;;12.51;100.00;97054.53;4914610;28;20887;-63
2022/08/13 03:29:10;;;;;;;4.20;3.90;;;;;;;12.49;100.00;97045.91;4963119;28;20202;-61
2022/08/13 03:31:39;;;;;;;4.30;4.10;;;;;;;12.56;100.00;97059.25;4966844;28;20315;-60
2022/08/13 03:34:22;;;;;;;4.37;4.17;;;;;;;12.50;100.00;97057.38;4962800;28;21026;-63
2022/08/13 03:36:51;;;;;;;5.17;4.87;;;;;;;12.30;100.00;97050.16;4967255;28;20302;-62
2022/08/13 03:39:24;;;;;;;4.33;4.03;;;;;;;12.36;100.00;97053.84;4962969;28;20219;-63
2022/08/13 03:41:53;;;;;;;4.00;3.73;;;;;;;12.34;100.00;97050.59;4912031;28;21393;-62
2022/08/13 03:44:28;;;;;;;4.37;4.07;;;;;;;12.41;100.00;97052.25;4964678;28;20205;-60
2022/08/13 03:47:02;;;;;;;4.80;4.50;;;;;;;12.35;100.00;97055.72;4939433;28;20228;-61
2022/08/13 03:49:50;;;;;;;4.10;3.90;;;;;;;12.40;100.00;97053.28;4960004;28;20541;-62
2022/08/13 03:52:19;;;;;;;4.37;4.17;;;;;;;12.41;100.00;97054.06;4932962;28;20323;-60
2022/08/13 03:55:05;;;;;;;4.80;4.50;;;;;;;12.44;100.00;97049.19;4942991;28;20588;-57
2022/08/13 03:57:39;;;;;;;4.23;4.03;;;;;;;12.48;100.00;97048.78;4931993;28;20234;-65
2022/08/13 04:00:29;;;;;;;4.67;4.37;;;;;;;12.50;100.00;97054.72;4901080;28;20219;-64
2022/08/13 04:03:00;;;;;;;4.40;4.20;;;;;;;12.42;100.00;97047.75;4955405;28;20263;-67
2022/08/13 04:05:30;;;;;;;5.10;4.80;;;;;;;12.30;100.00;97044.84;4953888;28;20581;-65
2022/08/13 04:08:18;;;;;;;4.97;4.67;;;;;;;12.44;100.00;97053.69;4954845;28;20213;-64
2022/08/13 04:10:46;;;;;;;4.63;4.43;;;;;;;12.31;100.00;97051.78;4980353;28;20330;-67
2022/08/13 04:13:21;;;;;;;5.17;4.87;;;;;;;12.27;100.00;97048.72;4912458;28;20923;-66
2022/08/13 04:16:14;;;;;;;4.83;4.60;;;;;;;12.22;100.00;97051.16;4937679;28;20229;-64
2022/08/13 04:18:46;;;;;;;4.77;4.37;;;;;;;12.29;100.00;97054.66;4989664;28;20573;-66
2022/08/13 04:21:17;;;;;;;6.07;5.43;;;;;;;12.28;100.00;97061.00;4969969;28;20400;-64
2022/08/13 04:23:51;;;;;;;4.60;4.40;;;;;;;12.15;100.00;97058.28;4960927;28;20254;-65
2022/08/13 04:26:24;;;;;;;4.90;4.63;;;;;;;12.14;100.00;97060.09;4985931;28;20686;-64
2022/08/13 04:28:59;;;;;;;5.43;5.13;;;;;;;12.14;100.00;97060.09;4989036;28;20208;-63
2022/08/13 04:31:28;;;;;;;5.90;5.50;;;;;;;12.18;100.00;97062.38;4936616;28;20288;-66
2022/08/13 04:34:16;;;;;;;5.77;5.33;;;;;;;12.17;100.00;97061.56;4982507;28;20252;-64
2022/08/13 04:37:07;;;;;;;5.60;5.30;;;;;;;12.09;100.00;97061.69;4987038;28;20236;-64
2022/08/13 04:39:46;;;;;;;5.50;5.20;;;;;;;12.07;100.00;97067.22;4965230;28;20231;-67
2022/08/13 04:42:46;;;;;;;5.10;4.80;;;;;;;12.09;100.00;97067.00;4959704;28;20212;-67
2022/08/13 04:45:16;;;;;;;5.30;4.80;;;;;;;12.07;100.00;97072.53;4990069;28;20201;-64
2022/08/13 04:47:45;;;;;;;5.47;5.07;;;;;;;12.09;100.00;97072.31;4948317;28;20353;-67
2022/08/13 04:50:17;;;;;;;6.03;5.53;;;;;;;11.99;100.00;97076.13;4985369;28;20206;-63
2022/08/13 04:52:47;;;;;;;5.93;5.43;;;;;;;12.11;100.00;97076.44;4967666;28;20209;-65
2022/08/13 04:55:17;;;;;;;5.80;5.50;;;;;;;12.14;100.00;97078.69;4960915;28;20233;-66
2022/08/13 04:57:47;;;;;;;5.20;4.90;;;;;;;12.10;100.00;97072.13;4989207;28;20225;-65
2022/08/13 05:00:32;;;;;;;5.40;5.10;;;;;;;12.14;100.00;97072.56;4987558;28;20927;-66
2022/08/13 05:03:12;;;;;;;5.60;5.30;;;;;;;12.10;100.00;97072.13;4951728;28;20221;-64
2022/08/13 05:05:41;;;;;;;5.53;5.13;;;;;;;12.07;100.00;97075.19;4984519;28;20331;-66
2022/08/13 05:08:11;;;;;;;5.37;5.07;;;;;;;12.27;100.00;97079.75;4978900;28;20292;-64
2022/08/13 05:10:41;;;;;;;5.90;5.50;;;;;;;12.36;100.00;97067.97;4983209;28;20227;-66
2022/08/13 05:13:25;;;;;;;5.90;5.50;;;;;;;12.54;100.00;97086.03;4973920;28;20216;-63
2022/08/13 05:15:58;;;;;;;5.57;5.27;;;;;;;12.60;100.00;97084.41;4990368;28;20461;-65
2022/08/13 05:18:31;;;;;;;5.27;4.97;;;;;;;12.61;100.00;97085.22;4952121;28;20213;-66
2022/08/13 05:21:03;;;;;;;5.17;4.87;;;;;;;12.58;100.00;97079.28;4984829;28;20201;-66
2022/08/13 05:23:34;;;;;;;6.13;5.73;;;;;;;12.64;100.00;97080.31;4986379;28;20295;-65
2022/08/13 05:26:23;;;;;;;5.63;5.33;;;;;;;12.73;100.00;97080.97;4962436;28;20938;-66
2022/08/13 05:29:13;;;;;;;5.70;5.30;;;;;;;12.81;100.00;97082.63;4977294;28;20215;-62
2022/08/13 05:31:41;;;;;;;5.63;5.27;;;;;;;12.79;100.00;97082.81;4986628;28;20228;-67
2022/08/13 05:34:28;;;;;;;5.67;5.37;;;;;;;12.92;100.00;97090.00;4948980;28;20949;-66
2022/08/13 05:36:58;;;;;;;5.67;5.37;;;;;;;13.07;100.00;97086.34;4988467;28;20310;-67
2022/08/13 05:39:47;;;;;;;5.20;4.80;;;;;;;13.24;100.00;97086.78;4987675;28;20209;-67
2022/08/13 05:42:19;;;;;;;5.03;4.73;;;;;;;13.45;100.00;97081.31;4963320;28;20220;-65
2022/08/13 05:44:57;;;;;;;5.40;5.10;;;;;;;13.64;100.00;97083.34;4963200;28;20300;-67
2022/08/13 05:47:27;;;;;;;5.30;5.00;;;;;;;13.80;100.00;97079.44;4954190;28;20225;-66
2022/08/13 05:49:57;;;;;;;5.43;4.63;;;;;;;13.97;100.00;97077.97;4943774;28;20209;-66
2022/08/13 05:52:30;;;;;;;5.20;4.80;;;;;;;13.95;100.00;97080.00;4960915;28;20267;-63
2022/08/13 05:55:15;;;;;;;5.40;4.90;;;;;;;14.08;100.00;97076.50;4985757;28;20224;-60
2022/08/13 05:58:04;;;;;;;5.97;5.47;;;;;;;14.17;100.00;97069.91;4963934;28;20497;-63
2022/08/13 06:03:40;;;;;;;5.63;5.33;;;;;;;14.33;100.00;97081.97;4970428;28;20755;-61
2022/08/13 06:06:30;;;;;;;5.33;4.93;;;;;;;14.31;100.00;97073.34;4960472;28;20229;-59
2022/08/13 06:09:04;;;;;;;5.40;5.10;;;;;;;14.42;100.00;97073.75;4916311;28;20217;-62
2022/08/13 06:11:40;;;;;;;4.90;4.60;;;;;;;14.56;100.00;97074.50;4963622;28;20216;-57
2022/08/13 06:14:34;;;;;;;5.10;4.77;;;;;;;14.79;100.00;97074.03;4968531;28;21081;-62
2022/08/13 06:17:05;;;;;;;5.33;4.87;;;;;;;15.07;100.00;97074.66;4904824;28;20774;-60
2022/08/13 06:19:43;;;;;;;5.30;4.90;;;;;;;15.13;100.00;97068.47;4986646;28;20266;-62
2022/08/13 06:22:20;;;;;;;5.33;5.03;;;;;;;15.16;100.00;97068.03;4973894;28;20204;-62
2022/08/13 06:24:51;;;;;;;5.00;4.70;;;;;;;15.23;100.00;97074.13;4969240;28;20215;-64
2022/08/13 06:27:23;;;;;;;4.80;4.40;;;;;;;15.35;100.00;97082.25;4987214;28;20315;-61
2022/08/13 06:30:13;;;;;;;4.93;4.63;;;;;;;15.56;100.00;97080.25;4975289;28;20748;-64
2022/08/13 06:33:01;;;;;;;5.00;4.70;;;;;;;15.81;100.00;97080.25;4964043;28;20240;-63
2022/08/13 06:35:50;;;;;;;5.30;4.80;;;;;;;16.52;100.00;97068.41;4986986;28;20295;-63
2022/08/13 06:38:29;;;;;;;4.47;4.27;;;;;;;16.79;100.00;97074.22;4943822;28;20757;-59
2022/08/13 06:41:01;;;;;;;4.90;4.60;;;;;;;17.01;100.00;97079.91;4986290;28;20267;-62
2022/08/13 06:43:30;;;;;;;4.50;4.20;;;;;;;17.38;100.00;97076.25;4975324;28;20217;-62
2022/08/13 06:46:17;;;;;;;4.27;4.00;;;;;;;17.82;100.00;97078.63;4964869;28;20235;-61
2022/08/13 06:48:57;;;;;;;4.17;3.97;;;;;;;18.14;100.00;97078.31;4982547;28;20294;-63
2022/08/13 06:51:25;;;;;;;4.50;4.20;;;;;;;18.51;100.00;97075.31;4987283;28;20701;-61
2022/08/13 06:53:55;;;;;;;4.20;4.00;;;;;;;18.49;100.00;97079.28;4944779;28;20206;-63
2022/08/13 06:56:44;;;;;;;4.27;4.07;;;;;;;18.47;100.00;97073.31;4987699;28;20229;-61
2022/08/13 06:59:33;;;;;;;3.80;3.60;;;;;;;18.43;100.00;97080.22;4978262;28;20296;-60
2022/08/13 07:02:23;;;;;;;4.27;4.07;;;;;;;18.46;100.00;97069.84;4970112;28;20646;-61
2022/08/13 07:04:58;;;;;;;4.57;4.27;;;;;;;18.48;100.00;97078.47;4983568;28;20308;-62
2022/08/13 07:07:27;;;;;;;4.43;4.20;;;;;;;18.65;100.00;97083.91;4962040;28;20661;-61
2022/08/13 07:10:00;;;;;;;4.53;4.23;;;;;;;18.58;100.00;97080.56;4984042;28;20275;-64
2022/08/13 07:12:31;;;;;;;3.83;3.63;;;;;;;18.72;100.00;97088.31;4987341;28;20231;-63
2022/08/13 07:15:01;;;;;;;3.90;3.70;;;;;;;18.87;100.00;97075.16;4977576;28;20232;-60
2022/08/13 07:17:35;;;;;;;4.13;3.73;;;;;;;18.83;100.00;97076.72;4967528;28;20645;-63
2022/08/13 07:20:12;;;;;;;4.30;4.10;;;;;;;18.94;100.00;97072.34;4972083;28;20304;-63
2022/08/13 07:22:52;;;;;;;3.87;3.57;;;;;;;19.01;100.00;97067.66;4986131;28;20208;-63
2022/08/13 07:25:44;;;;;;;5.10;4.80;;;;;;;19.21;100.00;97067.22;4939960;28;20379;-62
2022/08/13 07:28:26;;;;;;;4.40;4.10;;;;;;;19.07;100.00;97058.66;4983932;28;20288;-61
2022/08/13 07:31:15;;;;;;;3.40;3.30;;;;;;;19.15;100.00;97062.81;4971259;28;20316;-63
2022/08/13 07:33:49;;;;;;;4.93;4.53;;;;;;;19.18;100.00;97067.69;4970995;28;20326;-64
2022/08/13 07:36:28;;;;;;;3.87;3.67;;;;;;;19.46;100.00;97059.81;4970378;28;20225;-61
2022/08/13 07:38:57;;;;;;;3.73;3.53;;;;;;;19.71;100.00;97061.28;4942109;28;20429;-64
2022/08/13 07:41:28;;;;;;;3.67;3.47;;;;;;;19.94;100.00;97065.66;4987601;28;20672;-62
2022/08/13 07:44:00;;;;;;;3.70;3.50;;;;;;;20.09;100.00;97063.22;4985741;28;20201;-63
2022/08/13 07:46:42;;;;;;;3.63;3.53;;;;;;;20.41;96.92;97063.56;4973491;28;20575;-62
2022/08/13 07:49:18;;;;;;;3.70;3.40;;;;;;;20.52;93.13;97063.44;4967647;28;20219;-62
2022/08/13 07:51:48;;;;;;;4.57;4.03;;;;;;;20.52;91.20;97062.66;4972174;28;20653;-61
2022/08/13 07:54:18;;;;;;;7.13;3.53;;;;;;;20.68;94.28;97069.03;4976425;28;20884;-65
2022/08/13 07:56:54;;;;;;;3.47;3.27;;;;;;;20.63;92.34;97060.88;4962219;28;20244;-64
2022/08/13 07:59:22;;;;;;;4.13;3.83;;;;;;;20.68;92.60;97066.34;4984764;28;20201;-63
2022/08/13 08:02:12;;;;;;;3.73;3.50;;;;;;;20.78;93.07;97065.63;4974865;28;20216;-62
2022/08/13 08:04:50;;;;;;;3.63;3.40;;;;;;;20.93;91.64;97076.59;4978661;28;20417;-64
2022/08/13 08:07:22;;;;;;;4.17;3.80;;;;;;;21.10;91.04;97059.50;4970683;28;20225;-60
2022/08/13 08:09:52;;;;;;;4.40;4.17;;;;;;;21.24;88.13;97070.69;4987753;28;20478;-63
2022/08/13 08:12:35;;;;;;;3.60;3.40;;;;;;;21.32;90.97;97072.91;4934368;28;20220;-61
2022/08/13 08:15:23;;;;;;;4.93;3.90;;;;;;;21.34;90.33;97067.25;4913788;28;20216;-63
2022/08/13 08:18:12;;;;;;;3.77;3.57;;;;;;;21.50;84.17;97073.59;4984865;28;20317;-64
2022/08/13 08:21:05;;;;;;;3.93;3.73;;;;;;;21.76;83.13;97068.41;4966107;28;20493;-64
2022/08/13 08:23:56;;;;;;;4.03;3.73;;;;;;;21.74;81.13;97059.75;4982456;28;20689;-62
2022/08/13 08:26:26;;;;;;;3.20;3.10;;;;;;;21.67;83.95;97051.91;4986239;28;20664;-63
2022/08/13 08:28:57;;;;;;;3.90;3.70;;;;;;;21.80;76.89;97056.06;4948457;28;20208;-61
2022/08/13 08:31:27;;;;;;;3.87;3.67;;;;;;;22.00;80.64;97071.53;4983190;28;20721;-63
2022/08/13 08:34:18;;;;;;;3.80;3.60;;;;;;;22.20;75.49;97060.06;4984240;28;20461;-62
2022/08/13 08:36:48;;;;;;;3.10;3.00;;;;;;;22.30;74.88;97063.88;4969144;28;20255;-61
2022/08/13 08:42:40;;;;;;;3.73;3.53;;;;;;;22.58;71.61;97057.25;4924041;28;20468;-64
2022/08/13 08:45:31;;;;;;;4.73;3.70;;;;;;;22.74;71.05;97052.72;4877658;28;20266;-65
2022/08/13 08:48:20;;;;;;;3.53;3.33;;;;;;;22.82;71.21;97054.88;4924371;28;20980;-64
2022/08/13 08:50:54;;;;;;;3.60;3.40;;;;;;;22.83;69.90;97045.69;4912915;28;20319;-60
2022/08/13 08:53:25;;;;;;;3.40;3.20;;;;;;;23.00;65.45;97047.38;4924076;28;20208;-63
2022/08/13 08:56:13;;;;;;;5.67;4.20;;;;;;;23.15;58.56;97053.84;4925846;28;20231;-64
2022/08/13 08:58:43;;;;;;;3.00;2.80;;;;;;;23.05;54.47;97055.47;4927591;28;20846;-60
2022/08/13 09:01:13;;;;;;;3.27;3.07;;;;;;;23.23;56.72;97051.44;4881225;28;20442;-62
2022/08/13 09:03:46;;;;;;;2.83;2.73;;;;;;;23.40;54.66;97051.22;4929717;28;20745;-60
2022/08/13 09:06:28;;;;;;;3.43;3.23;;;;;;;23.32;52.89;97059.88;4911620;28;20223;-64
2022/08/13 09:09:17;;;;;;;3.53;2.93;;;;;;;23.35;54.46;97053.91;4926411;28;20207;-63
2022/08/13 09:11:47;;;;;;;2.90;2.80;;;;;;;23.22;54.02;97049.81;4927837;28;20207;-61
2022/08/13 09:14:24;;;;;;;2.90;2.80;;;;;;;23.26;55.05;97044.69;4986152;28;20450;-63
2022/08/13 09:16:54;;;;;;;4.37;3.00;;;;;;;23.56;53.93;97045.78;4941897;28;20236;-61
2022/08/13 09:19:24;;;;;;;2.93;2.77;;;;;;;23.86;49.78;97049.53;4985313;28;20506;-63
2022/08/13 09:22:14;;;;;;;3.17;2.97;;;;;;;24.05;49.74;97057.09;4971197;28;20245;-62
2022/08/13 09:24:48;;;;;;;3.30;3.10;;;;;;;24.34;47.91;97040.22;4987188;28;20224;-61
2022/08/13 09:27:18;;;;;;;3.20;2.90;;;;;;;24.50;46.43;97055.31;4990911;28;20224;-63
2022/08/13 09:29:50;;;;;;;3.07;2.90;;;;;;;24.48;47.41;97038.53;4988378;28;20228;-60
2022/08/13 09:32:30;;;;;;;3.30;3.00;;;;;;;24.54;46.75;97037.44;4943310;28;20251;-62
2022/08/13 09:35:01;;;;;;;2.83;2.73;;;;;;;24.66;44.68;97025.44;4982526;28;20548;-63
2022/08/13 09:37:31;;;;;;;2.73;2.60;;;;;;;24.71;43.68;97020.81;4986145;28;20603;-64
2022/08/13 09:40:20;;;;;;;3.90;3.50;;;;;;;24.83;42.80;97028.63;4985319;28;20300;-61
2022/08/13 09:43:12;;;;;;;3.20;3.00;;;;;;;24.70;43.03;97029.22;4985743;28;20240;-61
2022/08/13 09:46:00;;;;;;;3.47;3.23;;;;;;;24.87;43.47;97033.50;4983081;28;20442;-63
2022/08/13 09:48:31;;;;;;;3.67;3.40;;;;;;;25.21;41.55;97027.28;4937618;28;20227;-64
2022/08/13 09:51:05;;;;;;;4.67;3.80;;;;;;;25.50;43.91;97023.81;4985469;28;20213;-63
2022/08/13 09:53:43;;;;;;;3.10;2.90;;;;;;;25.52;41.80;97024.31;4987981;28;20258;-60
2022/08/13 09:56:13;;;;;;;3.20;3.00;;;;;;;25.61;40.67;97022.63;4971440;28;20674;-63
2022/08/13 09:58:41;;;;;;;4.63;2.80;;;;;;;25.50;39.03;97007.53;4989377;28;20243;-60
2022/08/13 10:01:11;;;;;;;3.30;3.10;;;;;;;25.52;38.62;97016.19;4988104;28;20727;-60
2022/08/13 10:04:00;;;;;;;2.57;2.37;;;;;;;25.76;41.00;97016.25;4938601;28;21045;-62
2022/08/13 10:06:29;;;;;;;3.13;2.93;;;;;;;25.69;39.65;97019.28;4979874;28;20245;-63
2022/08/13 10:09:00;;;;;;;2.63;2.53;;;;;;;25.74;38.84;97006.78;4983652;28;20205;-63
2022/08/13 10:11:28;;;;;;;2.50;2.30;;;;;;;25.86;38.73;96994.44;4973852;28;20625;-61
2022/08/13 10:14:16;;;;;;;2.60;2.50;;;;;;;25.99;37.27;97006.50;4987009;28;20285;-63
2022/08/13 10:16:49;;;;;;;2.20;2.10;;;;;;;26.25;37.54;96994.56;4988710;28;20232;-61
2022/08/13 10:19:21;;;;;;;2.60;2.50;;;;;;;26.28;38.00;97005.63;4941402;28;20602;-62
2022/08/13 10:21:51;;;;;;;2.47;2.37;;;;;;;26.70;36.50;96991.50;4933697;28;20572;-61
2022/08/13 10:24:20;;;;;;;2.40;2.30;;;;;;;26.37;35.36;96996.84;4966525;28;20315;-60
2022/08/13 10:26:48;;;;;;;2.63;2.53;;;;;;;26.04;36.86;96996.69;4988616;28;20228;-64
2022/08/13 10:29:21;;;;;;;2.70;2.60;;;;;;;25.70;36.66;96998.38;4969567;28;20484;-61
2022/08/13 10:32:10;;;;;;;2.93;2.73;;;;;;;25.47;39.31;96994.53;4986384;28;20231;-60
2022/08/13 10:34:43;;;;;;;2.10;2.00;;;;;;;25.21;37.48;96989.34;4989267;28;20422;-63
2022/08/13 10:37:25;;;;;;;3.47;2.50;;;;;;;24.92;37.83;96993.59;4940600;28;20474;-60
2022/08/13 10:39:53;;;;;;;2.33;2.23;;;;;;;24.62;38.81;96995.38;4986447;28;20209;-61
2022/08/13 10:42:21;;;;;;;2.70;2.60;;;;;;;24.46;38.69;97007.41;4986420;28;20209;-61
2022/08/13 10:44:51;;;;;;;1.90;1.90;;;;;;;24.84;39.26;96996.91;4970083;28;20216;-63
2022/08/13 10:47:22;;;;;;;2.30;2.20;;;;;;;25.31;37.89;96994.66;4982347;28;20224;-61
2022/08/13 10:50:13;;;;;;;2.60;2.50;;;;;;;25.82;37.94;96982.53;4985245;28;20216;-60
2022/08/13 10:52:46;;;;;;;2.40;2.30;;;;;;;25.83;35.15;96976.00;4944751;28;20205;-63
2022/08/13 10:55:24;;;;;;;2.57;2.40;;;;;;;26.29;35.84;96963.78;4977937;28;20470;-63
2022/08/13 10:57:53;;;;;;;2.30;2.20;;;;;;;26.50;34.49;96958.09;4991382;28;20229;-63
2022/08/13 11:00:36;;;;;;;2.03;1.77;;;;;;;26.72;34.92;96964.88;4969442;28;20799;-63
2022/08/13 11:03:05;;;;;;;2.27;2.07;;;;;;;26.91;34.41;96961.34;4984609;28;20550;-60
2022/08/13 11:05:36;;;;;;;2.80;2.60;;;;;;;26.93;32.58;96954.50;4986387;28;20304;-63
2022/08/13 11:08:13;;;;;;;2.20;2.10;;;;;;;27.67;33.16;96958.41;4939886;28;20216;-61
2022/08/13 11:10:42;;;;;;;2.33;2.20;;;;;;;27.48;33.82;96958.47;4984309;28;20233;-63
2022/08/13 11:13:31;;;;;;;2.50;2.30;;;;;;;28.18;32.96;96953.09;4983714;28;20398;-64
2022/08/13 11:19:14;;;;;;;2.53;2.40;;;;;;;28.34;33.57;96950.84;4988276;28;20224;-59
2022/08/13 11:21:46;;;;;;;2.37;2.27;;;;;;;28.57;32.68;96951.69;4990824;28;20280;-64
2022/08/13 11:24:34;;;;;;;2.50;2.40;;;;;;;28.50;31.80;96961.41;4937097;28;21028;-63
2022/08/13 11:27:06;;;;;;;2.57;2.40;;;;;;;27.82;32.45;96959.22;4986099;28;20229;-59
2022/08/13 11:29:36;;;;;;;3.40;3.10;;;;;;;27.70;32.36;96948.84;4984132;28;20316;-63
2022/08/13 11:32:12;;;;;;;2.67;2.57;;;;;;;27.60;32.05;96949.84;4967001;28;20296;-60
2022/08/13 11:34:49;;;;;;;5.57;3.70;;;;;;;27.33;32.77;96945.16;4985497;28;20210;-63
2022/08/13 11:37:20;;;;;;;3.17;2.37;;;;;;;27.32;32.68;96933.44;4982560;28;20265;-58
2022/08/13 11:39:49;;;;;;;3.23;2.93;;;;;;;27.34;32.37;96935.88;4943281;28;20520;-63
2022/08/13 11:42:38;;;;;;;4.33;3.97;;;;;;;27.22;32.30;96939.09;4984880;28;20466;-62
2022/08/13 11:45:10;;;;;;;2.67;2.47;;;;;;;26.55;33.52;96932.78;4982989;28;20213;-61
2022/08/13 11:47:41;;;;;;;2.20;2.10;;;;;;;26.15;34.41;96933.00;4976846;28;20931;-64
2022/08/13 11:50:13;;;;;;;2.83;2.60;;;;;;;26.37;35.15;96926.25;4985558;28;20760;-59
2022/08/13 11:52:59;;;;;;;2.57;2.47;;;;;;;26.73;34.21;96920.28;4983652;28;20212;-62
2022/08/13 11:55:27;;;;;;;2.50;2.40;;;;;;;27.13;33.01;96926.19;4936614;28;20963;-63
2022/08/13 11:58:00;;;;;;;2.87;2.53;;;;;;;27.06;33.63;96931.16;4982190;28;20230;-62
2022/08/13 12:00:28;;;;;;;2.40;2.30;;;;;;;26.69;34.15;96928.22;4982015;28;20287;-62
2022/08/13 12:03:00;;;;;;;2.93;2.43;;;;;;;26.35;33.67;96923.81;4971015;28;20236;-62
2022/08/13 12:05:30;;;;;;;2.77;2.40;;;;;;;26.00;35.01;96928.59;4982347;28;20244;-64
2022/08/13 12:08:00;;;;;;;2.53;2.43;;;;;;;25.72;35.58;96931.09;4988823;28;20236;-64
2022/08/13 12:10:29;;;;;;;2.27;2.17;;;;;;;25.61;34.42;96906.00;4937168;28;21262;-65
2022/08/13 12:13:18;;;;;;;3.20;3.00;;;;;;;25.84;34.57;96917.94;4981051;28;20211;-62
2022/08/13 12:15:48;;;;;;;3.13;3.03;;;;;;;25.98;34.60;96909.91;4985045;28;20204;-65
2022/08/13 12:18:36;;;;;;;3.13;2.93;;;;;;;26.42;34.88;96902.53;4969109;28;20311;-64
2022/08/13 12:21:06;;;;;;;2.73;2.63;;;;;;;26.89;33.26;96901.81;4987768;28;20227;-60
2022/08/13 12:23:46;;;;;;;2.23;2.13;;;;;;;27.14;32.65;96897.06;4986733;28;20642;-65
2022/08/13 12:26:28;;;;;;;2.47;2.27;;;;;;;27.47;31.88;96898.94;4936634;28;20453;-64
2022/08/13 12:28:57;;;;;;;2.27;2.17;;;;;;;27.66;30.95;96898.88;4929768;28;21179;-65
2022/08/13 12:31:25;;;;;;;2.57;2.37;;;;;;;28.00;31.25;96900.34;4979185;28;20238;-61
2022/08/13 12:34:00;;;;;;;2.43;2.33;;;;;;;28.14;31.03;96889.41;4980971;28;20331;-65
2022/08/13 12:36:29;;;;;;;4.40;2.40;;;;;;;28.24;30.25;96900.13;4986656;28;20673;-64